Time;durP1;ratioP1;P1;durP2;ratioP2;P2;SDS_P1;SDS_P2;PMS_P1;PMS_P2;Temp;Humidity;BMP_temperature;BMP_pressure;BME280_temperature;BME280_humidity;BME280_pressure;Samples;Min_cycle;Max_cycle;Signal;HPM_P1;HPM_P2
2022/04/03 00:00:34;;;;;;;19.03;12.60;;;0.40;99.90;;;;;;5028002;28;20189;-81
2022/04/03 00:03:01;;;;;;;17.33;13.18;;;0.40;99.90;;;;;;5030422;28;20497;-78
2022/04/03 00:05:27;;;;;;;21.80;13.48;;;0.40;99.90;;;;;;5027684;28;20194;-79
2022/04/03 00:07:54;;;;;;;19.40;13.60;;;0.30;99.90;;;;;;5044558;28;20188;-80
2022/04/03 00:10:23;;;;;;;19.98;12.50;;;0.30;99.90;;;;;;5029526;28;20828;-79
2022/04/03 00:12:50;;;;;;;18.88;13.65;;;0.30;99.90;;;;;;5029818;28;20262;-75
2022/04/03 00:15:16;;;;;;;26.55;13.23;;;0.30;99.90;;;;;;5029386;28;20181;-77
2022/04/03 00:17:43;;;;;;;16.27;12.70;;;0.30;99.90;;;;;;5049029;28;20187;-77
2022/04/03 00:20:10;;;;;;;24.17;13.25;;;0.30;99.90;;;;;;5033871;28;20905;-77
2022/04/03 00:22:35;;;;;;;18.42;12.55;;;0.40;99.90;;;;;;5048901;28;20227;-79
2022/04/03 00:25:01;;;;;;;17.37;12.67;;;0.40;99.90;;;;;;5015548;28;20570;-80
2022/04/03 00:27:27;;;;;;;19.00;12.45;;;0.40;99.90;;;;;;5049133;28;20196;-78
2022/04/03 00:29:53;;;;;;;20.70;12.83;;;0.40;99.90;;;;;;5015478;28;20227;-75
2022/04/03 00:32:19;;;;;;;16.90;13.10;;;0.40;99.90;;;;;;5033813;28;20211;-76
2022/04/03 00:34:45;;;;;;;19.00;11.73;;;0.40;99.90;;;;;;5032438;28;20187;-76
2022/04/03 00:37:11;;;;;;;20.77;12.85;;;0.40;99.90;;;;;;5033782;28;20931;-75
2022/04/03 00:39:37;;;;;;;19.63;11.90;;;0.50;99.90;;;;;;5016108;28;20207;-75
2022/04/03 00:42:06;;;;;;;20.53;12.93;;;0.40;99.90;;;;;;5033488;28;20205;-76
2022/04/03 00:44:33;;;;;;;20.00;12.77;;;0.40;99.90;;;;;;5033541;28;20558;-78
2022/04/03 00:46:59;;;;;;;17.48;12.68;;;0.40;99.90;;;;;;5033786;28;20647;-76
2022/04/03 00:49:27;;;;;;;22.40;14.55;;;0.40;99.90;;;;;;5033620;28;20208;-75
2022/04/03 00:51:52;;;;;;;18.63;13.02;;;0.40;99.90;;;;;;5031821;28;20215;-76
2022/04/03 00:54:18;;;;;;;15.10;10.60;;;0.40;99.90;;;;;;5033304;28;20211;-76
2022/04/03 00:56:44;;;;;;;15.97;12.77;;;0.40;99.90;;;;;;5015267;28;20188;-79
2022/04/03 00:59:12;;;;;;;13.43;11.30;;;0.30;99.90;;;;;;5032958;28;20185;-75
2022/04/03 01:01:42;;;;;;;17.20;12.52;;;0.40;99.90;;;;;;5032787;28;20477;-79
2022/04/03 01:04:08;;;;;;;19.85;13.82;;;0.40;99.90;;;;;;5015246;28;20285;-76
2022/04/03 01:06:34;;;;;;;27.77;14.15;;;0.40;99.90;;;;;;5032711;28;20610;-75
2022/04/03 01:09:02;;;;;;;17.20;12.55;;;0.30;99.90;;;;;;5032368;28;20685;-74
2022/04/03 01:11:28;;;;;;;16.25;12.68;;;0.40;99.90;;;;;;5032266;28;20286;-77
2022/04/03 01:13:54;;;;;;;17.57;12.10;;;0.40;99.90;;;;;;5032677;28;20519;-74
2022/04/03 01:16:20;;;;;;;18.20;12.30;;;0.40;99.90;;;;;;5032715;28;20495;-75
2022/04/03 01:18:46;;;;;;;21.08;12.50;;;0.30;99.90;;;;;;5031257;28;20760;-75
2022/04/03 01:21:12;;;;;;;17.58;12.80;;;0.40;99.90;;;;;;5032596;28;20269;-75
2022/04/03 01:23:39;;;;;;;18.08;12.90;;;0.40;99.90;;;;;;5032282;28;20596;-77
2022/04/03 01:26:05;;;;;;;21.90;12.43;;;0.40;99.90;;;;;;5032316;28;20758;-79
2022/04/03 01:28:31;;;;;;;17.88;11.32;;;0.40;99.90;;;;;;5046901;28;20592;-80
2022/04/03 01:30:56;;;;;;;14.57;11.27;;;0.40;99.90;;;;;;5032494;28;20208;-80
2022/04/03 01:33:22;;;;;;;19.20;12.10;;;0.30;99.90;;;;;;5032000;28;20882;-79
2022/04/03 01:35:48;;;;;;;16.70;11.20;;;0.30;99.90;;;;;;5030797;28;20231;-77
2022/04/03 01:38:14;;;;;;;15.90;10.80;;;0.30;99.90;;;;;;5032028;28;20214;-77
2022/04/03 01:40:40;;;;;;;17.43;11.80;;;0.30;99.90;;;;;;5032249;28;20188;-76
2022/04/03 01:43:07;;;;;;;14.43;11.30;;;0.30;99.90;;;;;;5047333;28;20229;-77
2022/04/03 01:45:34;;;;;;;14.70;11.18;;;0.30;99.90;;;;;;5032319;28;20419;-79
2022/04/03 01:48:00;;;;;;;16.98;11.63;;;0.20;99.90;;;;;;5032580;28;20186;-78
2022/04/03 01:50:26;;;;;;;19.63;12.23;;;0.30;99.90;;;;;;5032725;28;20286;-78
2022/04/03 01:52:52;;;;;;;15.90;12.05;;;0.20;99.90;;;;;;5031099;28;20207;-78
2022/04/03 01:55:18;;;;;;;17.63;12.25;;;0.20;99.90;;;;;;5032390;28;20180;-78
2022/04/03 01:57:44;;;;;;;14.37;10.90;;;0.30;99.90;;;;;;5032440;28;20556;-77
2022/04/03 02:00:11;;;;;;;18.60;12.03;;;0.30;99.90;;;;;;5030837;28;20185;-78
2022/04/03 02:02:38;;;;;;;15.32;11.20;;;0.20;99.90;;;;;;5032167;28;20204;-77
2022/04/03 02:05:05;;;;;;;17.95;11.60;;;0.20;99.90;;;;;;5014573;28;20276;-80
2022/04/03 02:07:32;;;;;;;16.98;11.43;;;0.20;99.90;;;;;;5032068;28;20223;-77
2022/04/03 02:09:59;;;;;;;21.52;11.32;;;0.20;99.90;;;;;;5031318;28;20296;-77
2022/04/03 02:12:24;;;;;;;23.80;11.95;;;0.20;99.90;;;;;;5031358;28;20685;-76
2022/04/03 02:14:50;;;;;;;16.20;11.77;;;0.20;99.90;;;;;;5031445;28;20185;-76
2022/04/03 02:17:16;;;;;;;17.93;10.83;;;0.30;99.90;;;;;;5030695;28;20294;-77
2022/04/03 02:19:41;;;;;;;13.33;10.20;;;0.30;99.90;;;;;;5012818;28;20256;-77
2022/04/03 02:22:08;;;;;;;17.93;10.30;;;0.30;99.90;;;;;;5012787;28;20208;-77
2022/04/03 02:24:34;;;;;;;19.10;11.73;;;0.30;99.90;;;;;;5030837;28;20191;-77
2022/04/03 02:26:59;;;;;;;17.83;12.45;;;0.30;99.90;;;;;;5030574;28;20641;-76
2022/04/03 02:29:25;;;;;;;16.50;11.00;;;0.40;99.90;;;;;;5029297;28;20216;-77
2022/04/03 02:31:51;;;;;;;25.63;16.23;;;0.30;99.90;;;;;;5030730;28;20183;-77
2022/04/03 02:34:17;;;;;;;22.63;12.30;;;0.30;99.90;;;;;;5012774;28;20211;-77
2022/04/03 02:36:43;;;;;;;15.45;11.35;;;0.30;99.90;;;;;;5030795;28;20169;-77
2022/04/03 02:39:10;;;;;;;19.90;11.90;;;0.30;99.90;;;;;;5030107;28;20177;-76
2022/04/03 02:41:37;;;;;;;17.67;10.55;;;0.30;99.90;;;;;;5030272;28;20185;-78
2022/04/03 02:44:03;;;;;;;13.60;10.70;;;0.30;99.90;;;;;;5012382;28;20276;-76
2022/04/03 02:46:30;;;;;;;16.13;9.48;;;0.30;99.90;;;;;;5045348;28;20969;-74
2022/04/03 02:48:56;;;;;;;13.35;10.43;;;0.40;99.90;;;;;;5028594;28;20192;-75
2022/04/03 02:51:22;;;;;;;17.67;10.88;;;0.40;99.90;;;;;;5028651;28;20221;-75
2022/04/03 02:53:47;;;;;;;13.70;10.70;;;0.40;99.90;;;;;;5045466;28;20209;-76
2022/04/03 02:56:13;;;;;;;14.83;11.87;;;0.30;99.90;;;;;;5028522;28;20638;-74
2022/04/03 02:58:40;;;;;;;18.60;11.40;;;0.40;99.90;;;;;;5029880;28;20192;-74
2022/04/03 03:01:06;;;;;;;12.10;9.93;;;0.40;99.90;;;;;;5028360;28;20192;-75
2022/04/03 03:03:32;;;;;;;13.38;9.85;;;0.30;99.90;;;;;;5029719;28;20212;-77
2022/04/03 03:05:58;;;;;;;18.88;9.95;;;0.40;99.90;;;;;;5029937;28;20946;-78
2022/04/03 03:08:24;;;;;;;17.43;10.83;;;0.30;99.90;;;;;;5028206;28;20189;-77
2022/04/03 03:10:50;;;;;;;15.35;10.75;;;0.30;99.90;;;;;;5029766;28;20456;-77
2022/04/03 03:13:16;;;;;;;15.10;10.87;;;0.30;99.90;;;;;;5028240;28;20208;-76
2022/04/03 03:15:41;;;;;;;15.75;10.27;;;0.40;99.90;;;;;;5028416;28;20851;-75
2022/04/03 03:18:07;;;;;;;18.00;10.20;;;0.40;99.90;;;;;;5012371;28;20184;-76
2022/04/03 03:20:33;;;;;;;9.80;8.80;;;0.40;99.90;;;;;;5030527;28;20189;-78
2022/04/03 03:23:00;;;;;;;12.35;9.50;;;0.40;99.90;;;;;;5044815;28;20205;-76
2022/04/03 03:25:26;;;;;;;15.15;10.32;;;0.40;99.90;;;;;;5030206;28;20218;-78
2022/04/03 03:27:52;;;;;;;16.65;9.50;;;0.40;99.90;;;;;;5048375;28;20204;-82
2022/04/03 03:30:17;;;;;;;14.67;10.60;;;0.40;99.90;;;;;;5053288;28;20209;-81
2022/04/03 03:32:43;;;;;;;11.27;8.90;;;0.40;99.90;;;;;;5053449;28;20200;-82
2022/04/03 03:35:10;;;;;;;15.23;10.17;;;0.40;99.90;;;;;;5044974;28;20199;-75
2022/04/03 03:37:37;;;;;;;13.57;10.10;;;0.40;99.90;;;;;;5030441;28;20211;-76
2022/04/03 03:40:06;;;;;;;13.55;10.30;;;0.40;99.90;;;;;;5028886;28;20675;-80
2022/04/03 03:42:32;;;;;;;16.85;10.40;;;0.30;99.90;;;;;;5031662;28;20980;-77
2022/04/03 03:44:59;;;;;;;12.70;10.00;;;0.30;99.90;;;;;;5031473;28;20197;-78
2022/04/03 03:47:25;;;;;;;13.98;10.10;;;0.30;99.90;;;;;;5030436;28;20563;-78
2022/04/03 03:49:51;;;;;;;14.75;9.98;;;0.30;99.90;;;;;;5031246;28;20212;-78
2022/04/03 03:52:17;;;;;;;13.13;9.67;;;0.30;99.90;;;;;;5047136;28;20199;-78
2022/04/03 03:54:44;;;;;;;15.63;10.10;;;0.40;99.90;;;;;;5029790;28;20184;-77
2022/04/03 03:57:10;;;;;;;14.75;10.65;;;0.40;99.90;;;;;;5029417;28;20267;-79
2022/04/03 03:59:36;;;;;;;12.97;10.23;;;0.40;99.90;;;;;;5029620;28;20293;-80
2022/04/03 04:02:02;;;;;;;14.63;10.50;;;0.40;99.90;;;;;;5029657;28;20295;-80
2022/04/03 04:04:29;;;;;;;17.17;11.65;;;0.40;99.90;;;;;;5031173;28;20209;-74
2022/04/03 04:06:55;;;;;;;13.52;11.02;;;0.40;99.90;;;;;;5028770;28;20185;-76
2022/04/03 04:09:21;;;;;;;14.43;11.00;;;0.40;99.90;;;;;;5028539;28;20281;-75
2022/04/03 04:11:46;;;;;;;14.10;10.70;;;0.40;99.90;;;;;;5028616;28;20284;-74
2022/04/03 04:14:12;;;;;;;16.07;10.43;;;0.40;99.90;;;;;;5043818;28;20192;-77
2022/04/03 04:16:38;;;;;;;19.27;11.13;;;0.40;99.90;;;;;;5028831;28;20169;-75
2022/04/03 04:19:05;;;;;;;18.40;11.77;;;0.40;99.90;;;;;;5030028;28;20421;-77
2022/04/03 04:21:30;;;;;;;18.23;11.32;;;0.40;99.90;;;;;;5028558;28;20189;-75
2022/04/03 04:23:56;;;;;;;15.10;10.53;;;0.40;99.90;;;;;;5028345;28;20798;-79
2022/04/03 04:26:22;;;;;;;19.27;11.80;;;0.40;99.90;;;;;;5014536;28;20285;-79
2022/04/03 04:28:48;;;;;;;17.83;11.07;;;0.40;99.90;;;;;;5033342;28;20184;-81
2022/04/03 04:31:15;;;;;;;16.00;11.65;;;0.40;99.90;;;;;;5033449;28;20644;-80
2022/04/03 04:33:41;;;;;;;20.75;12.40;;;0.40;99.90;;;;;;5031312;28;20647;-81
2022/04/03 04:36:07;;;;;;;14.30;11.30;;;0.50;99.90;;;;;;5034715;28;20182;-78
2022/04/03 04:38:33;;;;;;;16.60;11.33;;;0.40;99.90;;;;;;5043756;28;20811;-78
2022/04/03 04:40:59;;;;;;;18.95;12.68;;;0.40;99.90;;;;;;5030456;28;20427;-81
2022/04/03 04:43:24;;;;;;;16.40;12.27;;;0.40;99.90;;;;;;5031857;28;20719;-84
2022/04/03 04:45:50;;;;;;;16.73;11.73;;;0.40;99.90;;;;;;5029218;28;20798;-82
2022/04/03 04:48:16;;;;;;;19.23;12.10;;;0.40;99.90;;;;;;5030715;28;20211;-77
2022/04/03 04:50:42;;;;;;;21.77;13.40;;;0.50;99.90;;;;;;5014227;28;20216;-83
2022/04/03 04:53:08;;;;;;;19.40;13.70;;;0.40;99.90;;;;;;5028134;28;20201;-78
2022/04/03 04:55:34;;;;;;;20.47;12.90;;;0.40;99.90;;;;;;5030550;28;20210;-87
2022/04/03 04:57:59;;;;;;;21.80;13.40;;;0.30;99.90;;;;;;5027865;28;20182;-83
2022/04/03 05:00:28;;;;;;;20.70;12.40;;;0.40;99.90;;;;;;5030596;28;20809;-79
2022/04/03 05:02:55;;;;;;;16.88;12.82;;;0.40;99.90;;;;;;5034058;28;20301;-79
2022/04/03 05:05:24;;;;;;;22.88;13.57;;;0.30;99.90;;;;;;5048580;28;20189;-80
2022/04/03 05:07:58;;;;;;;24.45;13.10;;;0.30;99.90;;;;;;5016385;28;20243;-77
2022/04/03 05:10:25;;;;;;;18.50;11.60;;;0.30;99.90;;;;;;5032111;28;20854;-77
2022/04/03 05:12:53;;;;;;;18.13;11.95;;;0.40;99.90;;;;;;5033572;28;20227;-79
2022/04/03 05:15:19;;;;;;;17.10;12.95;;;0.40;99.90;;;;;;5032949;28;20183;-78
2022/04/03 05:17:45;;;;;;;17.52;11.75;;;0.40;99.90;;;;;;5032758;28;20552;-76
2022/04/03 05:20:13;;;;;;;19.55;13.07;;;0.30;99.90;;;;;;5036239;28;20658;-85
2022/04/03 05:22:39;;;;;;;19.40;11.48;;;0.30;99.90;;;;;;5035912;28;20218;-84
2022/04/03 05:25:06;;;;;;;14.68;12.20;;;0.30;99.90;;;;;;5037193;28;20216;-84
2022/04/03 05:27:34;;;;;;;16.55;12.35;;;0.30;99.90;;;;;;5033933;28;20300;-76
2022/04/03 05:30:03;;;;;;;20.85;12.43;;;0.30;99.90;;;;;;5032207;28;20232;-76
2022/04/03 05:32:30;;;;;;;19.02;11.50;;;0.30;99.90;;;;;;5032170;28;20244;-76
2022/04/03 05:34:57;;;;;;;14.82;11.43;;;0.30;99.90;;;;;;5032627;28;20181;-77
2022/04/03 05:37:23;;;;;;;15.40;11.75;;;0.40;99.90;;;;;;5030977;28;20188;-78
2022/04/03 05:39:51;;;;;;;20.05;12.48;;;0.40;99.90;;;;;;5030901;28;20191;-75
2022/04/03 05:42:17;;;;;;;19.05;13.25;;;0.40;99.90;;;;;;5030633;28;20208;-78
2022/04/03 05:44:43;;;;;;;16.25;12.48;;;0.50;99.90;;;;;;5031926;28;20188;-77
2022/04/03 05:47:08;;;;;;;18.20;13.03;;;0.50;99.90;;;;;;5031783;28;20193;-74
2022/04/03 05:49:34;;;;;;;21.40;13.40;;;0.50;99.90;;;;;;5030280;28;20232;-74
2022/04/03 05:52:00;;;;;;;20.60;13.20;;;0.50;99.90;;;;;;5030384;28;20208;-75
2022/04/03 05:54:25;;;;;;;18.53;11.97;;;0.50;99.90;;;;;;5031331;28;20257;-74
2022/04/03 05:56:51;;;;;;;17.87;12.07;;;0.60;99.90;;;;;;5031138;28;20181;-74
2022/04/03 05:59:19;;;;;;;20.60;13.10;;;0.50;99.90;;;;;;5030924;28;20184;-74
2022/04/03 06:01:46;;;;;;;16.40;11.93;;;0.50;99.90;;;;;;5031015;28;20311;-74
2022/04/03 06:04:11;;;;;;;21.17;11.57;;;0.50;99.90;;;;;;5031283;28;20251;-74
2022/04/03 06:06:37;;;;;;;21.10;17.27;;;0.50;99.90;;;;;;5029951;28;20624;-75
2022/04/03 06:09:04;;;;;;;21.50;14.00;;;0.60;99.90;;;;;;5029655;28;20187;-76
2022/04/03 06:11:29;;;;;;;23.50;13.63;;;0.50;99.90;;;;;;5030596;28;20565;-76
2022/04/03 06:13:55;;;;;;;25.90;14.73;;;0.50;99.90;;;;;;5029937;28;20216;-75
2022/04/03 06:16:21;;;;;;;20.90;15.10;;;0.60;99.90;;;;;;5012642;28;20186;-75
2022/04/03 06:18:46;;;;;;;20.30;15.73;;;0.60;99.90;;;;;;5030460;28;20184;-76
2022/04/03 06:21:12;;;;;;;21.47;14.27;;;0.70;99.90;;;;;;5029257;28;20217;-77
2022/04/03 06:23:38;;;;;;;21.00;12.40;;;0.70;99.90;;;;;;5029017;28;20196;-76
2022/04/03 06:26:03;;;;;;;15.30;12.37;;;0.70;99.90;;;;;;5029064;28;20273;-76
2022/04/03 06:28:29;;;;;;;18.13;13.03;;;0.80;99.90;;;;;;5029126;28;20187;-76
2022/04/03 06:30:56;;;;;;;18.53;13.00;;;0.90;99.90;;;;;;5028926;28;20209;-75
2022/04/03 06:33:22;;;;;;;18.15;12.10;;;1.00;99.90;;;;;;5028906;28;20639;-75
2022/04/03 06:35:48;;;;;;;19.50;12.50;;;1.00;99.90;;;;;;5030370;28;20185;-75
2022/04/03 06:38:14;;;;;;;19.47;12.13;;;0.90;99.90;;;;;;5030293;28;20267;-75
2022/04/03 06:40:59;;;;;;;21.38;12.15;;;1.00;99.90;;;;;;5030331;28;20426;-74
2022/04/03 06:43:27;;;;;;;19.70;13.00;;;0.90;99.90;;;;;;5028678;28;20255;-75
2022/04/03 06:45:54;;;;;;;18.95;12.35;;;1.10;99.90;;;;;;5030164;28;20612;-75
2022/04/03 06:48:20;;;;;;;15.23;12.07;;;0.90;99.90;;;;;;5030055;28;20186;-75
2022/04/03 06:50:46;;;;;;;16.13;11.15;;;1.00;99.90;;;;;;5030007;28;20203;-74
2022/04/03 06:53:12;;;;;;;20.23;12.13;;;1.00;99.90;;;;;;5045322;28;20616;-75
2022/04/03 06:55:37;;;;;;;14.00;10.80;;;1.00;99.90;;;;;;5044970;28;20228;-75
2022/04/03 06:58:03;;;;;;;15.00;11.13;;;1.00;99.90;;;;;;5030033;28;20233;-75
2022/04/03 07:00:29;;;;;;;15.27;11.30;;;0.90;99.90;;;;;;5029982;28;20188;-75
2022/04/03 07:02:55;;;;;;;19.17;13.00;;;0.80;99.90;;;;;;5030799;28;20448;-75
2022/04/03 07:05:21;;;;;;;21.90;12.13;;;1.10;99.90;;;;;;5029697;28;20425;-75
2022/04/03 07:07:46;;;;;;;16.53;11.50;;;1.10;99.90;;;;;;5030516;28;20912;-75
2022/04/03 07:10:13;;;;;;;13.40;10.73;;;1.10;99.90;;;;;;5030821;28;20471;-75
2022/04/03 07:12:39;;;;;;;14.50;10.65;;;1.30;99.90;;;;;;5045976;28;20205;-74
2022/04/03 07:15:08;;;;;;;17.10;11.23;;;1.20;99.90;;;;;;5029884;28;20188;-75
2022/04/03 07:17:34;;;;;;;17.50;12.30;;;1.20;99.90;;;;;;5029709;28;20481;-75
2022/04/03 07:20:00;;;;;;;13.13;10.52;;;1.30;99.90;;;;;;5044663;28;20751;-75
2022/04/03 07:22:26;;;;;;;13.90;9.87;;;1.40;99.90;;;;;;5029346;28;20209;-75
2022/04/03 07:24:51;;;;;;;13.13;8.30;;;1.70;99.90;;;;;;5027054;28;20197;-75
2022/04/03 07:27:17;;;;;;;9.40;8.40;;;1.60;99.90;;;;;;5027863;28;20197;-75
2022/04/03 07:29:43;;;;;;;11.83;9.47;;;1.70;99.90;;;;;;5027871;28;20661;-75
2022/04/03 07:32:08;;;;;;;12.40;9.13;;;1.80;99.90;;;;;;5044202;28;20700;-75
2022/04/03 07:34:34;;;;;;;12.83;9.80;;;2.10;99.90;;;;;;5029489;28;20169;-75
2022/04/03 07:36:59;;;;;;;13.03;9.57;;;2.20;99.90;;;;;;5044808;28;20191;-75
2022/04/03 07:39:26;;;;;;;10.60;9.50;;;2.30;99.90;;;;;;5029689;28;20276;-75
2022/04/03 07:41:52;;;;;;;14.10;10.10;;;2.30;99.90;;;;;;5029885;28;20181;-75
2022/04/03 07:44:17;;;;;;;17.97;8.93;;;2.70;99.90;;;;;;5028678;28;20182;-75
2022/04/03 07:46:43;;;;;;;11.90;9.30;;;2.80;99.90;;;;;;5030054;28;21130;-75
2022/04/03 07:49:10;;;;;;;11.40;8.77;;;3.10;99.90;;;;;;5045160;28;20418;-76
2022/04/03 07:51:36;;;;;;;9.45;7.68;;;3.40;99.90;;;;;;5044988;28;20586;-75
2022/04/03 07:54:02;;;;;;;8.73;7.70;;;3.70;99.90;;;;;;5029556;28;20178;-76
2022/04/03 07:56:29;;;;;;;8.77;7.35;;;3.60;99.90;;;;;;5029429;28;20857;-76
2022/04/03 07:58:56;;;;;;;9.30;7.57;;;3.50;99.90;;;;;;5044156;28;20326;-75
2022/04/03 08:01:22;;;;;;;8.80;7.55;;;3.50;99.90;;;;;;5026780;28;20191;-75
2022/04/03 08:03:48;;;;;;;9.17;7.70;;;3.50;99.90;;;;;;5027738;28;20206;-75
2022/04/03 08:06:13;;;;;;;11.53;7.03;;;3.50;99.90;;;;;;5027991;28;20443;-75
2022/04/03 08:08:39;;;;;;;11.20;8.10;;;3.50;99.90;;;;;;5027756;28;20198;-76
2022/04/03 08:11:05;;;;;;;9.90;7.87;;;3.50;99.90;;;;;;5027361;28;20326;-75
2022/04/03 08:13:31;;;;;;;7.40;6.70;;;3.50;99.90;;;;;;5027398;28;20207;-76
2022/04/03 08:15:56;;;;;;;9.07;7.63;;;3.50;99.90;;;;;;5027364;28;20418;-75
2022/04/03 08:18:23;;;;;;;9.37;6.50;;;3.80;99.90;;;;;;5042667;28;20509;-76
2022/04/03 08:20:51;;;;;;;8.37;7.00;;;3.70;99.90;;;;;;5027897;28;20429;-76
2022/04/03 08:23:16;;;;;;;8.93;6.20;;;3.70;99.90;;;;;;5042852;28;20471;-76
2022/04/03 08:25:45;;;;;;;9.63;7.80;;;3.80;99.90;;;;;;5043072;28;20191;-76
2022/04/03 08:28:11;;;;;;;10.80;7.15;;;4.10;99.90;;;;;;5043125;28;20550;-76
2022/04/03 08:30:38;;;;;;;7.60;6.35;;;4.20;99.90;;;;;;5043225;28;20210;-76
2022/04/03 08:33:05;;;;;;;8.13;6.27;;;4.10;99.90;;;;;;5027352;28;20598;-76
2022/04/03 08:35:32;;;;;;;7.80;7.03;;;4.10;99.90;;;;;;5027751;28;20916;-76
2022/04/03 08:37:58;;;;;;;6.85;5.57;;;4.00;99.90;;;;;;5045981;28;20430;-76
2022/04/03 08:40:25;;;;;;;7.68;6.95;;;4.30;99.90;;;;;;5030061;28;20197;-76
2022/04/03 08:42:53;;;;;;;10.30;6.53;;;4.50;99.90;;;;;;5031234;28;20206;-76
2022/04/03 08:45:19;;;;;;;11.10;6.87;;;4.40;99.90;;;;;;5046611;28;20200;-76
2022/04/03 08:47:57;;;;;;;7.32;5.80;;;4.50;99.90;;;;;;5046429;28;20480;-76
2022/04/03 08:50:31;;;;;;;5.57;5.07;;;4.60;99.90;;;;;;5031964;28;20294;-76
2022/04/03 08:53:03;;;;;;;13.60;5.93;;;4.70;99.90;;;;;;5032224;28;20571;-76
2022/04/03 08:55:29;;;;;;;10.07;5.33;;;4.80;99.90;;;;;;5047536;28;20191;-76
2022/04/03 08:57:55;;;;;;;5.70;5.20;;;4.70;99.90;;;;;;5032013;28;20488;-76
2022/04/03 09:00:21;;;;;;;5.87;5.17;;;4.60;99.90;;;;;;5031839;28;20430;-76
2022/04/03 09:02:49;;;;;;;6.80;5.37;;;4.50;99.90;;;;;;5031459;28;20529;-76
2022/04/03 09:05:16;;;;;;;5.33;4.83;;;4.40;99.90;;;;;;5031552;28;20792;-75
2022/04/03 09:07:42;;;;;;;7.30;5.43;;;4.30;99.90;;;;;;5029715;28;20441;-76
2022/04/03 09:10:16;;;;;;;5.73;4.97;;;4.20;99.90;;;;;;5031134;28;20461;-76
2022/04/03 09:12:51;;;;;;;7.70;6.25;;;4.00;99.90;;;;;;5045526;28;20441;-76
2022/04/03 09:15:19;;;;;;;6.87;5.70;;;3.80;99.90;;;;;;5046640;28;20530;-75
2022/04/03 09:17:55;;;;;;;15.80;8.30;;;3.80;99.90;;;;;;5030602;28;20418;-76
2022/04/03 09:20:22;;;;;;;6.82;5.40;;;3.70;99.90;;;;;;5044621;28;20513;-76
2022/04/03 09:22:58;;;;;;;7.20;5.37;;;3.50;99.90;;;;;;5046248;28;20226;-76
2022/04/03 09:25:31;;;;;;;8.40;5.90;;;3.50;99.90;;;;;;5030930;28;20433;-76
2022/04/03 09:28:08;;;;;;;6.33;5.40;;;3.50;99.90;;;;;;5045881;28;20472;-75
2022/04/03 09:30:36;;;;;;;10.23;6.43;;;3.30;99.90;;;;;;5030743;28;20472;-75
2022/04/03 09:33:05;;;;;;;14.40;8.73;;;3.40;99.90;;;;;;5045715;28;20278;-75
2022/04/03 09:35:32;;;;;;;7.63;5.70;;;3.70;99.90;;;;;;5030854;28;20206;-76
2022/04/03 09:38:15;;;;;;;7.67;6.10;;;4.10;99.90;;;;;;5030737;28;20423;-76
2022/04/03 09:40:52;;;;;;;6.13;5.22;;;4.50;99.90;;;;;;5045127;28;20451;-76
2022/04/03 09:43:23;;;;;;;8.50;6.90;;;5.00;99.90;;;;;;5030440;28;20207;-75
2022/04/03 09:45:53;;;;;;;7.63;5.87;;;4.90;99.90;;;;;;5030825;28;20451;-76
2022/04/03 09:48:23;;;;;;;7.17;6.17;;;4.80;99.90;;;;;;5044649;28;20815;-76
2022/04/03 09:51:10;;;;;;;8.23;6.60;;;4.70;99.90;;;;;;5030388;28;21107;-75
2022/04/03 09:53:41;;;;;;;7.90;5.83;;;4.60;99.90;;;;;;5045687;28;20507;-75
2022/04/03 09:56:12;;;;;;;10.60;6.10;;;4.90;99.90;;;;;;5030308;28;20413;-76
2022/04/03 09:58:59;;;;;;;8.77;6.87;;;4.80;99.90;;;;;;5030378;28;20797;-76
2022/04/03 10:01:28;;;;;;;7.27;5.60;;;4.90;99.90;;;;;;5028576;28;20426;-76
2022/04/03 10:03:55;;;;;;;7.67;5.57;;;5.20;99.90;;;;;;5030328;28;20529;-76
2022/04/03 10:06:22;;;;;;;7.27;5.30;;;5.90;99.90;;;;;;5045208;28;20438;-76
2022/04/03 10:08:48;;;;;;;6.05;5.43;;;6.20;99.90;;;;;;5028450;28;20458;-76
2022/04/03 10:11:15;;;;;;;7.57;6.30;;;6.40;99.90;;;;;;5044954;28;20223;-76
2022/04/03 10:13:43;;;;;;;6.30;5.73;;;6.80;99.80;;;;;;5029850;28;20529;-76
2022/04/03 10:16:13;;;;;;;7.63;5.53;;;6.30;98.40;;;;;;5029791;28;20415;-76
2022/04/03 10:18:43;;;;;;;5.23;4.73;;;6.10;97.10;;;;;;5029811;28;20896;-76
2022/04/03 10:21:16;;;;;;;5.70;4.90;;;5.90;99.90;;;;;;5028276;28;20433;-76
2022/04/03 10:23:44;;;;;;;6.40;4.87;;;5.50;99.80;;;;;;5029709;28;20466;-76
2022/04/03 10:26:15;;;;;;;10.77;5.50;;;5.20;99.00;;;;;;5028116;28;20530;-75
2022/04/03 10:28:44;;;;;;;5.80;4.60;;;5.00;99.80;;;;;;5030104;28;20514;-75
2022/04/03 10:31:15;;;;;;;8.10;5.33;;;4.80;99.90;;;;;;5029831;28;20528;-76
2022/04/03 10:33:47;;;;;;;4.60;4.13;;;4.60;99.90;;;;;;5044862;28;20852;-75
2022/04/03 10:36:15;;;;;;;4.43;4.00;;;4.40;99.90;;;;;;5029393;28;20462;-76
2022/04/03 10:38:55;;;;;;;5.23;4.53;;;4.30;99.90;;;;;;5045185;28;20430;-75
2022/04/03 10:41:33;;;;;;;5.03;4.60;;;4.30;99.90;;;;;;5044813;28;20922;-75
2022/04/03 10:44:22;;;;;;;12.80;5.50;;;4.20;99.90;;;;;;5043479;28;20465;-75
2022/04/03 10:47:05;;;;;;;7.75;5.45;;;4.10;99.90;;;;;;5028932;28;20245;-75
2022/04/03 10:49:37;;;;;;;14.40;8.80;;;4.10;99.90;;;;;;5029090;28;20184;-75
2022/04/03 10:52:08;;;;;;;11.70;8.40;;;4.10;99.90;;;;;;5028782;28;20199;-75
2022/04/03 10:54:50;;;;;;;6.90;5.43;;;4.30;99.90;;;;;;5029049;28;20419;-76
2022/04/03 10:57:42;;;;;;;9.30;5.33;;;4.40;99.90;;;;;;5027040;28;20604;-75
2022/04/03 11:00:14;;;;;;;7.00;5.38;;;4.50;99.90;;;;;;5026958;28;20484;-75
2022/04/03 11:02:42;;;;;;;5.90;5.27;;;4.50;99.90;;;;;;5028479;28;20203;-75
2022/04/03 11:05:29;;;;;;;8.10;5.20;;;4.50;99.90;;;;;;5028557;28;20417;-75
2022/04/03 11:08:00;;;;;;;4.50;4.10;;;4.50;99.90;;;;;;5029316;28;20501;-75
2022/04/03 11:10:56;;;;;;;7.30;5.67;;;4.40;99.90;;;;;;5028146;28;20494;-75
2022/04/03 11:13:29;;;;;;;9.47;4.93;;;4.40;99.90;;;;;;5028116;28;20476;-75
2022/04/03 11:16:10;;;;;;;5.77;4.33;;;4.20;99.90;;;;;;5027940;28;20411;-75
2022/04/03 11:18:39;;;;;;;5.20;4.70;;;4.10;99.90;;;;;;5027719;28;20788;-75
2022/04/03 11:21:11;;;;;;;8.37;5.67;;;4.00;99.90;;;;;;5026250;28;20446;-75
2022/04/03 11:23:50;;;;;;;10.07;4.50;;;4.00;99.90;;;;;;5042924;28;20448;-75
2022/04/03 11:26:17;;;;;;;12.30;7.97;;;3.70;99.90;;;;;;5043064;28;20434;-76
2022/04/03 11:28:43;;;;;;;11.30;8.13;;;3.60;99.90;;;;;;5027907;28;20275;-75
2022/04/03 11:31:10;;;;;;;9.37;6.90;;;3.60;99.90;;;;;;5025788;28;20475;-75
2022/04/03 11:33:37;;;;;;;6.00;5.23;;;3.70;99.90;;;;;;5027737;28;20973;-75
2022/04/03 11:36:03;;;;;;;7.73;5.20;;;3.70;99.90;;;;;;5027515;28;20914;-75
2022/04/03 11:38:43;;;;;;;7.13;5.65;;;3.80;99.90;;;;;;5027307;28;20409;-75
2022/04/03 11:41:13;;;;;;;14.30;8.17;;;3.90;99.90;;;;;;5027541;28;20198;-75
2022/04/03 11:43:41;;;;;;;7.57;5.33;;;4.00;99.90;;;;;;5042480;28;20489;-75
2022/04/03 11:46:08;;;;;;;5.80;4.27;;;4.10;99.90;;;;;;5042054;28;20429;-75
2022/04/03 11:48:45;;;;;;;8.00;4.40;;;4.20;99.90;;;;;;5025810;28;20426;-76
2022/04/03 11:51:17;;;;;;;5.43;4.65;;;4.30;99.90;;;;;;5025570;28;20214;-75
2022/04/03 11:53:44;;;;;;;5.60;4.50;;;4.30;99.90;;;;;;5027077;28;20194;-75
2022/04/03 11:56:14;;;;;;;10.13;4.70;;;4.50;99.90;;;;;;5027176;28;20430;-75
2022/04/03 11:58:44;;;;;;;11.00;4.50;;;4.70;99.90;;;;;;5027130;28;20411;-76
2022/04/03 12:01:12;;;;;;;7.30;4.57;;;4.60;99.90;;;;;;5025846;28;20426;-76
2022/04/03 12:03:38;;;;;;;7.90;4.30;;;4.50;99.90;;;;;;5027196;28;20456;-75
2022/04/03 12:06:31;;;;;;;4.85;4.15;;;4.50;99.90;;;;;;5027330;28;20430;-76
2022/04/03 12:08:57;;;;;;;7.87;5.53;;;4.40;99.90;;;;;;5026876;28;20191;-76
2022/04/03 12:11:27;;;;;;;7.40;4.17;;;4.70;99.90;;;;;;5026569;28;20467;-76
2022/04/03 12:13:58;;;;;;;4.47;3.37;;;4.90;99.90;;;;;;5041819;28;20445;-76
2022/04/03 12:16:27;;;;;;;5.50;3.65;;;4.80;99.90;;;;;;5025584;28;20421;-76
2022/04/03 12:19:02;;;;;;;4.20;3.77;;;5.00;99.90;;;;;;5042065;28;20313;-75
2022/04/03 12:21:57;;;;;;;4.00;3.58;;;5.10;99.90;;;;;;5026945;28;20429;-76
2022/04/03 12:24:24;;;;;;;3.50;3.20;;;5.30;98.60;;;;;;5027398;28;20226;-76
2022/04/03 12:27:16;;;;;;;7.33;3.70;;;5.40;95.20;;;;;;5026297;28;20466;-76
2022/04/03 12:29:45;;;;;;;3.93;3.63;;;5.70;99.00;;;;;;5041494;28;20899;-76
2022/04/03 12:32:15;;;;;;;4.77;4.20;;;5.80;99.90;;;;;;5027343;28;20458;-76
2022/04/03 12:34:43;;;;;;;15.60;6.40;;;5.70;99.10;;;;;;5028312;28;21009;-76
2022/04/03 12:37:10;;;;;;;6.43;4.23;;;5.70;99.70;;;;;;5025663;28;20444;-76
2022/04/03 12:39:41;;;;;;;4.22;3.83;;;5.60;98.20;;;;;;5027508;28;20427;-76
2022/04/03 12:42:25;;;;;;;4.40;3.70;;;5.60;98.10;;;;;;5042456;28;20606;-76
2022/04/03 12:45:11;;;;;;;4.30;3.93;;;5.60;97.80;;;;;;5027043;28;20180;-76
2022/04/03 12:47:43;;;;;;;4.07;3.73;;;5.40;99.60;;;;;;5041659;28;20418;-76
2022/04/03 12:50:11;;;;;;;4.53;3.73;;;5.80;99.90;;;;;;5026915;28;20458;-76